Drywood, Kansas
Current Conditions -  °F | °C
As of 3:15 PM on Tuesday 21 Oct 2014 (Local Time) from KPTS Reporting Station
Clear Clear  
Wind Chill: 76°   Ceiling: Unl
Heat Index: 78°   Visibility: 10mi
Dew Point: 53°   Wind: 0mph
Humidity: 45%   Direction: NA
Pressure: 30.07"   Gusts: NA
Location:  37.6277°N, 94.7013°W
Report Text: KPTS 212015Z AUTO 00000KT 10SM CLR 25/12 A3007 RMK AO2 T02450118
Loading
Personal Weather Stations






























Interactive Weather Map
Tropical Storm Tracking
New forecast layout! Learn more

10-Day Weather Forecast

Advertisements
Track Severe Weather on mobile